sensor_id;sensor_type;location;lat;lon;timestamp;temperature;humidity
921;DHT22;447;51.332;6.778;2023-05-07T00:00:25;20.00;97.80
921;DHT22;447;51.332;6.778;2023-05-07T00:02:53;19.90;97.80
921;DHT22;447;51.332;6.778;2023-05-07T00:05:19;19.90;97.80
921;DHT22;447;51.332;6.778;2023-05-07T00:07:48;19.90;97.90
921;DHT22;447;51.332;6.778;2023-05-07T00:10:14;19.90;97.90
921;DHT22;447;51.332;6.778;2023-05-07T00:12:42;19.90;97.90
921;DHT22;447;51.332;6.778;2023-05-07T00:15:11;19.90;97.90
921;DHT22;447;51.332;6.778;2023-05-07T00:17:37;19.90;97.90
921;DHT22;447;51.332;6.778;2023-05-07T00:20:04;19.90;97.90
921;DHT22;447;51.332;6.778;2023-05-07T00:22:34;19.90;98.00
921;DHT22;447;51.332;6.778;2023-05-07T00:25:04;19.90;98.00
921;DHT22;447;51.332;6.778;2023-05-07T00:27:30;19.90;98.00
921;DHT22;447;51.332;6.778;2023-05-07T00:29:59;19.90;98.10
921;DHT22;447;51.332;6.778;2023-05-07T00:32:27;19.80;98.00
921;DHT22;447;51.332;6.778;2023-05-07T00:34:55;19.80;98.10
921;DHT22;447;51.332;6.778;2023-05-07T00:37:23;19.80;98.10
921;DHT22;447;51.332;6.778;2023-05-07T00:39:50;19.80;98.10
921;DHT22;447;51.332;6.778;2023-05-07T00:42:18;19.80;98.10
921;DHT22;447;51.332;6.778;2023-05-07T00:44:44;19.80;98.20
921;DHT22;447;51.332;6.778;2023-05-07T00:47:17;19.80;98.20
921;DHT22;447;51.332;6.778;2023-05-07T00:49:44;19.80;98.20
921;DHT22;447;51.332;6.778;2023-05-07T00:52:14;19.70;98.20
921;DHT22;447;51.332;6.778;2023-05-07T00:54:41;19.70;98.20
921;DHT22;447;51.332;6.778;2023-05-07T00:57:09;19.70;98.20
921;DHT22;447;51.332;6.778;2023-05-07T00:59:40;19.70;98.20
921;DHT22;447;51.332;6.778;2023-05-07T01:02:07;19.70;98.20
921;DHT22;447;51.332;6.778;2023-05-07T01:04:35;19.70;98.20
921;DHT22;447;51.332;6.778;2023-05-07T01:07:02;19.70;98.30
921;DHT22;447;51.332;6.778;2023-05-07T01:09:31;19.70;98.30
921;DHT22;447;51.332;6.778;2023-05-07T01:11:58;19.70;98.30
921;DHT22;447;51.332;6.778;2023-05-07T01:14:25;19.60;98.30
921;DHT22;447;51.332;6.778;2023-05-07T01:16:53;19.70;98.30
921;DHT22;447;51.332;6.778;2023-05-07T01:19:21;19.60;98.30
921;DHT22;447;51.332;6.778;2023-05-07T01:21:48;19.60;98.20
921;DHT22;447;51.332;6.778;2023-05-07T01:24:19;19.60;98.30
921;DHT22;447;51.332;6.778;2023-05-07T01:26:45;19.60;98.30
921;DHT22;447;51.332;6.778;2023-05-07T01:29:13;19.60;98.30
921;DHT22;447;51.332;6.778;2023-05-07T01:31:46;19.60;98.30
921;DHT22;447;51.332;6.778;2023-05-07T01:34:17;19.50;98.30
921;DHT22;447;51.332;6.778;2023-05-07T01:36:47;19.60;98.40
921;DHT22;447;51.332;6.778;2023-05-07T01:39:13;19.50;98.30
921;DHT22;447;51.332;6.778;2023-05-07T01:41:40;19.50;98.30
921;DHT22;447;51.332;6.778;2023-05-07T01:44:07;19.50;98.30
921;DHT22;447;51.332;6.778;2023-05-07T01:46:34;19.50;98.40
921;DHT22;447;51.332;6.778;2023-05-07T01:49:01;19.50;98.40
921;DHT22;447;51.332;6.778;2023-05-07T01:51:29;19.50;98.40
921;DHT22;447;51.332;6.778;2023-05-07T01:53:56;19.40;98.40
921;DHT22;447;51.332;6.778;2023-05-07T01:56:22;19.40;98.30
921;DHT22;447;51.332;6.778;2023-05-07T01:58:49;19.40;98.30
921;DHT22;447;51.332;6.778;2023-05-07T02:01:16;19.40;98.30
921;DHT22;447;51.332;6.778;2023-05-07T02:03:45;19.40;98.30
921;DHT22;447;51.332;6.778;2023-05-07T02:06:19;19.40;98.30
921;DHT22;447;51.332;6.778;2023-05-07T02:08:52;19.40;98.30
921;DHT22;447;51.332;6.778;2023-05-07T02:11:21;19.40;98.30
921;DHT22;447;51.332;6.778;2023-05-07T02:13:49;19.40;98.30
921;DHT22;447;51.332;6.778;2023-05-07T02:16:19;19.40;98.30
921;DHT22;447;51.332;6.778;2023-05-07T02:18:45;19.40;98.30
921;DHT22;447;51.332;6.778;2023-05-07T02:21:12;19.30;98.20
921;DHT22;447;51.332;6.778;2023-05-07T02:23:37;19.30;98.20
921;DHT22;447;51.332;6.778;2023-05-07T02:26:06;19.30;98.30
921;DHT22;447;51.332;6.778;2023-05-07T02:28:35;19.30;98.30
921;DHT22;447;51.332;6.778;2023-05-07T02:31:03;19.30;98.30
921;DHT22;447;51.332;6.778;2023-05-07T02:33:30;19.30;98.30
921;DHT22;447;51.332;6.778;2023-05-07T02:36:05;19.30;98.30
921;DHT22;447;51.332;6.778;2023-05-07T02:38:35;19.30;98.40
921;DHT22;447;51.332;6.778;2023-05-07T02:41:04;19.30;98.40
921;DHT22;447;51.332;6.778;2023-05-07T02:43:35;19.20;98.40
921;DHT22;447;51.332;6.778;2023-05-07T02:46:08;19.20;98.40
921;DHT22;447;51.332;6.778;2023-05-07T02:48:41;19.20;98.40
921;DHT22;447;51.332;6.778;2023-05-07T02:51:10;19.20;98.50
921;DHT22;447;51.332;6.778;2023-05-07T02:53:38;19.20;98.50
921;DHT22;447;51.332;6.778;2023-05-07T02:56:06;19.20;98.50
921;DHT22;447;51.332;6.778;2023-05-07T02:58:33;19.20;98.60
921;DHT22;447;51.332;6.778;2023-05-07T03:01:00;19.20;98.50
921;DHT22;447;51.332;6.778;2023-05-07T03:03:34;19.20;98.60
921;DHT22;447;51.332;6.778;2023-05-07T03:06:03;19.10;98.50
921;DHT22;447;51.332;6.778;2023-05-07T03:08:32;19.10;98.50
921;DHT22;447;51.332;6.778;2023-05-07T03:11:05;19.10;98.60
921;DHT22;447;51.332;6.778;2023-05-07T03:13:31;19.10;98.60
921;DHT22;447;51.332;6.778;2023-05-07T03:15:57;19.10;98.60
921;DHT22;447;51.332;6.778;2023-05-07T03:18:23;19.10;98.60
921;DHT22;447;51.332;6.778;2023-05-07T03:20:49;19.10;98.60
921;DHT22;447;51.332;6.778;2023-05-07T03:23:19;19.10;98.60
921;DHT22;447;51.332;6.778;2023-05-07T03:25:49;19.00;98.60
921;DHT22;447;51.332;6.778;2023-05-07T03:28:15;19.00;98.60
921;DHT22;447;51.332;6.778;2023-05-07T03:30:50;19.00;98.60
921;DHT22;447;51.332;6.778;2023-05-07T03:33:16;19.00;98.60
921;DHT22;447;51.332;6.778;2023-05-07T03:35:44;19.00;98.60
921;DHT22;447;51.332;6.778;2023-05-07T03:38:15;19.00;98.60
921;DHT22;447;51.332;6.778;2023-05-07T03:40:41;19.00;98.60
921;DHT22;447;51.332;6.778;2023-05-07T03:43:07;19.00;98.60
921;DHT22;447;51.332;6.778;2023-05-07T03:45:36;19.00;98.60
921;DHT22;447;51.332;6.778;2023-05-07T03:48:13;19.00;98.60
921;DHT22;447;51.332;6.778;2023-05-07T03:50:42;18.90;98.60
921;DHT22;447;51.332;6.778;2023-05-07T03:53:11;18.90;98.60
921;DHT22;447;51.332;6.778;2023-05-07T03:55:41;18.90;98.60
921;DHT22;447;51.332;6.778;2023-05-07T03:58:07;18.90;98.60
921;DHT22;447;51.332;6.778;2023-05-07T04:00:33;18.90;98.60
921;DHT22;447;51.332;6.778;2023-05-07T04:03:10;18.90;98.60
921;DHT22;447;51.332;6.778;2023-05-07T04:05:39;18.90;98.60
921;DHT22;447;51.332;6.778;2023-05-07T04:08:05;18.90;98.80
921;DHT22;447;51.332;6.778;2023-05-07T04:10:43;18.80;98.60
921;DHT22;447;51.332;6.778;2023-05-07T04:13:10;18.80;98.60
921;DHT22;447;51.332;6.778;2023-05-07T04:15:39;18.80;98.60
921;DHT22;447;51.332;6.778;2023-05-07T04:18:09;18.80;98.60
921;DHT22;447;51.332;6.778;2023-05-07T04:20:43;18.80;98.60
921;DHT22;447;51.332;6.778;2023-05-07T04:23:12;18.80;98.60
921;DHT22;447;51.332;6.778;2023-05-07T04:25:38;18.80;98.70
921;DHT22;447;51.332;6.778;2023-05-07T04:28:15;18.80;98.70
921;DHT22;447;51.332;6.778;2023-05-07T04:30:42;18.80;98.70
921;DHT22;447;51.332;6.778;2023-05-07T04:33:09;18.70;98.70
921;DHT22;447;51.332;6.778;2023-05-07T04:35:36;18.70;98.60
921;DHT22;447;51.332;6.778;2023-05-07T04:38:06;18.70;98.70
921;DHT22;447;51.332;6.778;2023-05-07T04:40:38;18.70;98.70
921;DHT22;447;51.332;6.778;2023-05-07T04:43:06;18.70;98.70
921;DHT22;447;51.332;6.778;2023-05-07T04:45:39;18.70;98.70
921;DHT22;447;51.332;6.778;2023-05-07T04:48:11;18.70;98.70
921;DHT22;447;51.332;6.778;2023-05-07T04:50:40;18.70;98.70
921;DHT22;447;51.332;6.778;2023-05-07T04:53:09;18.70;98.70
921;DHT22;447;51.332;6.778;2023-05-07T04:55:40;18.70;98.70
921;DHT22;447;51.332;6.778;2023-05-07T04:58:09;18.70;98.70
921;DHT22;447;51.332;6.778;2023-05-07T05:00:40;18.60;98.70
921;DHT22;447;51.332;6.778;2023-05-07T05:03:07;18.60;98.70
921;DHT22;447;51.332;6.778;2023-05-07T05:05:37;18.60;98.70
921;DHT22;447;51.332;6.778;2023-05-07T05:08:04;18.60;98.70
921;DHT22;447;51.332;6.778;2023-05-07T05:10:30;18.60;98.80
921;DHT22;447;51.332;6.778;2023-05-07T05:12:56;18.60;98.80
921;DHT22;447;51.332;6.778;2023-05-07T05:15:28;18.60;98.80
921;DHT22;447;51.332;6.778;2023-05-07T05:17:54;18.60;98.80
921;DHT22;447;51.332;6.778;2023-05-07T05:20:25;18.60;98.80
921;DHT22;447;51.332;6.778;2023-05-07T05:22:54;18.60;98.80
921;DHT22;447;51.332;6.778;2023-05-07T05:25:23;18.50;98.70
921;DHT22;447;51.332;6.778;2023-05-07T05:27:49;18.50;98.70
921;DHT22;447;51.332;6.778;2023-05-07T05:30:20;18.50;98.70
921;DHT22;447;51.332;6.778;2023-05-07T05:32:46;18.50;98.60
921;DHT22;447;51.332;6.778;2023-05-07T05:35:12;18.50;98.60
921;DHT22;447;51.332;6.778;2023-05-07T05:37:45;18.50;98.60
921;DHT22;447;51.332;6.778;2023-05-07T05:40:16;18.50;98.50
921;DHT22;447;51.332;6.778;2023-05-07T05:42:42;18.50;98.50
921;DHT22;447;51.332;6.778;2023-05-07T05:45:11;18.50;98.50
921;DHT22;447;51.332;6.778;2023-05-07T05:47:41;18.50;98.40
921;DHT22;447;51.332;6.778;2023-05-07T05:50:07;18.50;98.40
921;DHT22;447;51.332;6.778;2023-05-07T05:52:36;18.50;98.40
921;DHT22;447;51.332;6.778;2023-05-07T05:55:02;18.50;98.30
921;DHT22;447;51.332;6.778;2023-05-07T05:57:29;18.50;98.30
921;DHT22;447;51.332;6.778;2023-05-07T05:59:56;18.50;98.20
921;DHT22;447;51.332;6.778;2023-05-07T06:02:26;18.50;98.20
921;DHT22;447;51.332;6.778;2023-05-07T06:04:58;18.50;98.20
921;DHT22;447;51.332;6.778;2023-05-07T06:07:24;18.50;98.10
921;DHT22;447;51.332;6.778;2023-05-07T06:09:50;18.50;98.00
921;DHT22;447;51.332;6.778;2023-05-07T06:12:16;18.50;98.00
921;DHT22;447;51.332;6.778;2023-05-07T06:14:45;18.50;97.90
921;DHT22;447;51.332;6.778;2023-05-07T06:17:20;18.50;98.00
921;DHT22;447;51.332;6.778;2023-05-07T06:19:46;18.50;98.10
921;DHT22;447;51.332;6.778;2023-05-07T06:22:16;18.50;98.20
921;DHT22;447;51.332;6.778;2023-05-07T06:24:45;18.50;98.20
921;DHT22;447;51.332;6.778;2023-05-07T06:27:14;18.50;98.10
921;DHT22;447;51.332;6.778;2023-05-07T06:29:44;18.50;98.20
921;DHT22;447;51.332;6.778;2023-05-07T06:32:14;18.50;98.30
921;DHT22;447;51.332;6.778;2023-05-07T06:34:42;18.40;98.20
921;DHT22;447;51.332;6.778;2023-05-07T06:37:11;18.50;98.70
921;DHT22;447;51.332;6.778;2023-05-07T06:40:04;18.50;98.30
921;DHT22;447;51.332;6.778;2023-05-07T06:42:33;18.50;98.20
921;DHT22;447;51.332;6.778;2023-05-07T06:45:19;18.50;98.20
921;DHT22;447;51.332;6.778;2023-05-07T06:47:48;18.50;98.10
921;DHT22;447;51.332;6.778;2023-05-07T06:50:17;18.50;98.00
921;DHT22;447;51.332;6.778;2023-05-07T06:52:48;18.50;98.00
921;DHT22;447;51.332;6.778;2023-05-07T06:55:14;18.50;98.00
921;DHT22;447;51.332;6.778;2023-05-07T06:57:40;18.50;98.00
921;DHT22;447;51.332;6.778;2023-05-07T07:00:10;18.50;97.90
921;DHT22;447;51.332;6.778;2023-05-07T07:02:46;18.50;97.90
921;DHT22;447;51.332;6.778;2023-05-07T07:05:19;18.50;97.90
921;DHT22;447;51.332;6.778;2023-05-07T07:07:48;18.50;97.90
921;DHT22;447;51.332;6.778;2023-05-07T07:10:19;18.50;97.80
921;DHT22;447;51.332;6.778;2023-05-07T07:12:46;18.50;97.90
921;DHT22;447;51.332;6.778;2023-05-07T07:15:13;18.50;97.90
921;DHT22;447;51.332;6.778;2023-05-07T07:17:40;18.50;97.90
921;DHT22;447;51.332;6.778;2023-05-07T07:20:07;18.50;97.90
921;DHT22;447;51.332;6.778;2023-05-07T07:22:34;18.50;98.00
921;DHT22;447;51.332;6.778;2023-05-07T07:25:02;18.50;98.10
921;DHT22;447;51.332;6.778;2023-05-07T07:27:29;18.50;98.10
921;DHT22;447;51.332;6.778;2023-05-07T07:30:00;18.50;98.10
921;DHT22;447;51.332;6.778;2023-05-07T07:32:28;18.50;98.10
921;DHT22;447;51.332;6.778;2023-05-07T07:34:57;18.50;98.00
921;DHT22;447;51.332;6.778;2023-05-07T07:37:29;18.50;98.00
921;DHT22;447;51.332;6.778;2023-05-07T07:39:56;18.50;98.10
921;DHT22;447;51.332;6.778;2023-05-07T07:42:22;18.50;98.10
921;DHT22;447;51.332;6.778;2023-05-07T07:44:48;18.60;98.20
921;DHT22;447;51.332;6.778;2023-05-07T07:47:17;18.60;98.30
921;DHT22;447;51.332;6.778;2023-05-07T07:49:46;18.60;98.40
921;DHT22;447;51.332;6.778;2023-05-07T07:52:12;18.60;98.40
921;DHT22;447;51.332;6.778;2023-05-07T07:54:38;18.60;98.60
921;DHT22;447;51.332;6.778;2023-05-07T07:57:06;18.60;98.60
921;DHT22;447;51.332;6.778;2023-05-07T07:59:35;18.60;98.60
921;DHT22;447;51.332;6.778;2023-05-07T08:02:05;18.60;98.70
921;DHT22;447;51.332;6.778;2023-05-07T08:04:31;18.70;98.70
921;DHT22;447;51.332;6.778;2023-05-07T08:07:02;18.60;98.60
921;DHT22;447;51.332;6.778;2023-05-07T08:09:32;18.70;98.70
921;DHT22;447;51.332;6.778;2023-05-07T08:12:03;18.70;98.80
921;DHT22;447;51.332;6.778;2023-05-07T08:14:35;18.70;98.70
921;DHT22;447;51.332;6.778;2023-05-07T08:17:04;18.70;98.60
921;DHT22;447;51.332;6.778;2023-05-07T08:19:30;18.70;98.60
921;DHT22;447;51.332;6.778;2023-05-07T08:21:59;18.70;98.70
921;DHT22;447;51.332;6.778;2023-05-07T08:24:28;18.70;98.70
921;DHT22;447;51.332;6.778;2023-05-07T08:26:56;18.80;98.80
921;DHT22;447;51.332;6.778;2023-05-07T08:29:30;18.80;98.60
921;DHT22;447;51.332;6.778;2023-05-07T08:31:59;18.80;98.60
921;DHT22;447;51.332;6.778;2023-05-07T08:34:27;18.80;98.50
921;DHT22;447;51.332;6.778;2023-05-07T08:37:03;18.80;98.60
921;DHT22;447;51.332;6.778;2023-05-07T08:39:33;18.80;98.90
921;DHT22;447;51.332;6.778;2023-05-07T08:42:00;18.90;98.70
921;DHT22;447;51.332;6.778;2023-05-07T08:44:35;18.90;98.60
921;DHT22;447;51.332;6.778;2023-05-07T08:47:06;18.90;98.60
921;DHT22;447;51.332;6.778;2023-05-07T08:49:34;18.90;98.50
921;DHT22;447;51.332;6.778;2023-05-07T08:52:06;19.00;98.70
921;DHT22;447;51.332;6.778;2023-05-07T08:54:37;18.90;98.60
921;DHT22;447;51.332;6.778;2023-05-07T08:57:04;19.00;98.60
921;DHT22;447;51.332;6.778;2023-05-07T08:59:33;19.00;98.60
921;DHT22;447;51.332;6.778;2023-05-07T09:01:59;19.00;98.60
921;DHT22;447;51.332;6.778;2023-05-07T09:04:30;19.10;98.60
921;DHT22;447;51.332;6.778;2023-05-07T09:06:57;19.10;98.50
921;DHT22;447;51.332;6.778;2023-05-07T09:09:30;19.10;98.50
921;DHT22;447;51.332;6.778;2023-05-07T09:12:00;19.10;98.40
921;DHT22;447;51.332;6.778;2023-05-07T09:14:28;19.10;98.40
921;DHT22;447;51.332;6.778;2023-05-07T09:16:59;19.20;98.50
921;DHT22;447;51.332;6.778;2023-05-07T09:19:27;19.20;98.40
921;DHT22;447;51.332;6.778;2023-05-07T09:22:05;19.20;98.50
921;DHT22;447;51.332;6.778;2023-05-07T09:24:50;19.20;98.40
921;DHT22;447;51.332;6.778;2023-05-07T09:27:22;19.30;98.50
921;DHT22;447;51.332;6.778;2023-05-07T09:29:51;19.30;98.40
921;DHT22;447;51.332;6.778;2023-05-07T09:32:17;19.30;98.50
921;DHT22;447;51.332;6.778;2023-05-07T09:34:44;19.40;98.40
921;DHT22;447;51.332;6.778;2023-05-07T09:37:13;19.40;98.40
921;DHT22;447;51.332;6.778;2023-05-07T09:39:44;19.40;98.70
921;DHT22;447;51.332;6.778;2023-05-07T09:42:11;19.40;98.30
921;DHT22;447;51.332;6.778;2023-05-07T09:44:38;19.50;98.30
921;DHT22;447;51.332;6.778;2023-05-07T09:47:08;19.50;98.30
921;DHT22;447;51.332;6.778;2023-05-07T09:49:47;19.50;98.20
921;DHT22;447;51.332;6.778;2023-05-07T09:52:16;19.50;98.20
921;DHT22;447;51.332;6.778;2023-05-07T09:54:47;19.60;98.20
921;DHT22;447;51.332;6.778;2023-05-07T09:57:19;19.60;98.10
921;DHT22;447;51.332;6.778;2023-05-07T09:59:50;19.70;98.00
921;DHT22;447;51.332;6.778;2023-05-07T10:02:21;19.60;97.90
921;DHT22;447;51.332;6.778;2023-05-07T10:04:52;19.70;97.90
921;DHT22;447;51.332;6.778;2023-05-07T10:07:24;19.70;97.90
921;DHT22;447;51.332;6.778;2023-05-07T10:09:55;19.70;97.80
921;DHT22;447;51.332;6.778;2023-05-07T10:12:29;19.80;97.80
921;DHT22;447;51.332;6.778;2023-05-07T10:14:56;19.80;97.80
921;DHT22;447;51.332;6.778;2023-05-07T10:17:24;19.80;97.80
921;DHT22;447;51.332;6.778;2023-05-07T10:19:53;19.90;97.70
921;DHT22;447;51.332;6.778;2023-05-07T10:22:20;19.90;97.70
921;DHT22;447;51.332;6.778;2023-05-07T10:24:51;19.90;97.60
921;DHT22;447;51.332;6.778;2023-05-07T10:27:19;19.90;97.60
921;DHT22;447;51.332;6.778;2023-05-07T10:32:57;20.00;97.60
921;DHT22;447;51.332;6.778;2023-05-07T10:35:41;20.00;97.50
921;DHT22;447;51.332;6.778;2023-05-07T10:38:09;20.00;97.50
921;DHT22;447;51.332;6.778;2023-05-07T10:40:38;20.00;97.50
921;DHT22;447;51.332;6.778;2023-05-07T10:43:07;20.10;97.50
921;DHT22;447;51.332;6.778;2023-05-07T10:45:39;20.10;97.50
921;DHT22;447;51.332;6.778;2023-05-07T10:50:34;20.20;97.40
921;DHT22;447;51.332;6.778;2023-05-07T10:58:45;20.30;97.30
921;DHT22;447;51.332;6.778;2023-05-07T11:01:50;20.30;97.20
921;DHT22;447;51.332;6.778;2023-05-07T11:04:25;20.40;97.30
921;DHT22;447;51.332;6.778;2023-05-07T11:15:36;20.50;97.10
921;DHT22;447;51.332;6.778;2023-05-07T11:18:08;20.50;96.80
921;DHT22;447;51.332;6.778;2023-05-07T11:20:48;20.60;96.60
921;DHT22;447;51.332;6.778;2023-05-07T11:26:22;20.60;96.20
921;DHT22;447;51.332;6.778;2023-05-07T11:28:52;20.70;96.10
921;DHT22;447;51.332;6.778;2023-05-07T11:31:27;20.70;96.00
921;DHT22;447;51.332;6.778;2023-05-07T11:33:57;20.70;96.30
921;DHT22;447;51.332;6.778;2023-05-07T11:36:30;20.80;95.80
921;DHT22;447;51.332;6.778;2023-05-07T11:38:56;20.80;95.80
921;DHT22;447;51.332;6.778;2023-05-07T11:41:36;20.80;95.70
921;DHT22;447;51.332;6.778;2023-05-07T11:44:05;20.80;95.60
921;DHT22;447;51.332;6.778;2023-05-07T11:46:32;20.90;95.60
921;DHT22;447;51.332;6.778;2023-05-07T11:49:01;20.90;95.60
921;DHT22;447;51.332;6.778;2023-05-07T11:51:30;20.90;95.50
921;DHT22;447;51.332;6.778;2023-05-07T11:53:58;21.00;95.50
921;DHT22;447;51.332;6.778;2023-05-07T11:56:24;21.00;95.40
921;DHT22;447;51.332;6.778;2023-05-07T11:58:50;21.00;95.30
921;DHT22;447;51.332;6.778;2023-05-07T12:01:18;21.00;95.30
921;DHT22;447;51.332;6.778;2023-05-07T12:03:46;21.00;95.20
921;DHT22;447;51.332;6.778;2023-05-07T12:06:16;21.00;95.50
921;DHT22;447;51.332;6.778;2023-05-07T12:08:43;21.10;95.20
921;DHT22;447;51.332;6.778;2023-05-07T12:11:12;21.10;95.20
921;DHT22;447;51.332;6.778;2023-05-07T12:13:39;21.10;95.50
921;DHT22;447;51.332;6.778;2023-05-07T12:16:12;21.10;95.40
921;DHT22;447;51.332;6.778;2023-05-07T12:18:41;21.10;95.50
921;DHT22;447;51.332;6.778;2023-05-07T12:21:08;21.20;95.60
921;DHT22;447;51.332;6.778;2023-05-07T12:23:36;21.20;95.60
921;DHT22;447;51.332;6.778;2023-05-07T12:26:05;21.20;95.70
921;DHT22;447;51.332;6.778;2023-05-07T12:28:37;21.20;95.70
921;DHT22;447;51.332;6.778;2023-05-07T12:31:07;21.20;95.70
921;DHT22;447;51.332;6.778;2023-05-07T12:33:38;21.20;95.80
921;DHT22;447;51.332;6.778;2023-05-07T12:36:07;21.20;95.80
921;DHT22;447;51.332;6.778;2023-05-07T12:38:38;21.30;95.90
921;DHT22;447;51.332;6.778;2023-05-07T12:41:05;21.30;95.90
921;DHT22;447;51.332;6.778;2023-05-07T12:43:34;21.30;95.90
921;DHT22;447;51.332;6.778;2023-05-07T12:46:03;21.30;95.90
921;DHT22;447;51.332;6.778;2023-05-07T12:48:32;21.30;96.30
921;DHT22;447;51.332;6.778;2023-05-07T12:51:00;21.30;95.90
921;DHT22;447;51.332;6.778;2023-05-07T12:53:30;21.30;95.90
921;DHT22;447;51.332;6.778;2023-05-07T12:55:58;21.30;96.00
921;DHT22;447;51.332;6.778;2023-05-07T12:58:30;21.30;96.00
921;DHT22;447;51.332;6.778;2023-05-07T13:01:04;21.40;96.10
921;DHT22;447;51.332;6.778;2023-05-07T13:03:32;21.40;96.10
921;DHT22;447;51.332;6.778;2023-05-07T13:06:01;21.40;96.00
921;DHT22;447;51.332;6.778;2023-05-07T13:08:32;21.40;96.10
921;DHT22;447;51.332;6.778;2023-05-07T13:11:02;21.40;96.10
921;DHT22;447;51.332;6.778;2023-05-07T13:13:35;21.40;96.00
921;DHT22;447;51.332;6.778;2023-05-07T13:16:04;21.40;96.00
921;DHT22;447;51.332;6.778;2023-05-07T13:18:31;21.40;96.00
921;DHT22;447;51.332;6.778;2023-05-07T13:20:57;21.40;96.00
921;DHT22;447;51.332;6.778;2023-05-07T13:23:24;21.50;96.00
921;DHT22;447;51.332;6.778;2023-05-07T13:25:50;21.50;95.90
921;DHT22;447;51.332;6.778;2023-05-07T13:28:18;21.50;95.90
921;DHT22;447;51.332;6.778;2023-05-07T13:30:44;21.50;95.90
921;DHT22;447;51.332;6.778;2023-05-07T13:33:10;21.50;95.80
921;DHT22;447;51.332;6.778;2023-05-07T13:35:41;21.50;95.70
921;DHT22;447;51.332;6.778;2023-05-07T13:38:09;21.50;95.80
921;DHT22;447;51.332;6.778;2023-05-07T13:40:35;21.50;95.90
921;DHT22;447;51.332;6.778;2023-05-07T13:43:01;21.50;95.90
921;DHT22;447;51.332;6.778;2023-05-07T13:45:30;21.50;96.00
921;DHT22;447;51.332;6.778;2023-05-07T13:47:57;21.50;96.10
921;DHT22;447;51.332;6.778;2023-05-07T13:50:23;21.50;96.30
921;DHT22;447;51.332;6.778;2023-05-07T13:52:51;21.50;96.30
921;DHT22;447;51.332;6.778;2023-05-07T13:55:18;21.40;96.40
921;DHT22;447;51.332;6.778;2023-05-07T13:57:44;21.50;96.40
921;DHT22;447;51.332;6.778;2023-05-07T14:00:11;21.50;96.60
921;DHT22;447;51.332;6.778;2023-05-07T14:02:45;21.50;96.60
921;DHT22;447;51.332;6.778;2023-05-07T14:05:11;21.50;96.60
921;DHT22;447;51.332;6.778;2023-05-07T14:07:45;21.50;96.70
921;DHT22;447;51.332;6.778;2023-05-07T14:10:12;21.50;96.70
921;DHT22;447;51.332;6.778;2023-05-07T14:12:40;21.50;96.80
921;DHT22;447;51.332;6.778;2023-05-07T14:15:07;21.50;96.90
921;DHT22;447;51.332;6.778;2023-05-07T14:17:35;21.50;97.00
921;DHT22;447;51.332;6.778;2023-05-07T14:20:01;21.50;97.10
921;DHT22;447;51.332;6.778;2023-05-07T14:22:32;21.50;97.10
921;DHT22;447;51.332;6.778;2023-05-07T14:25:00;21.50;97.20
921;DHT22;447;51.332;6.778;2023-05-07T14:27:26;21.50;97.20
921;DHT22;447;51.332;6.778;2023-05-07T14:29:55;21.50;97.20
921;DHT22;447;51.332;6.778;2023-05-07T14:32:22;21.50;97.20
921;DHT22;447;51.332;6.778;2023-05-07T14:34:48;21.50;97.20
921;DHT22;447;51.332;6.778;2023-05-07T14:37:16;21.50;97.20
921;DHT22;447;51.332;6.778;2023-05-07T14:39:42;21.50;97.20
921;DHT22;447;51.332;6.778;2023-05-07T14:42:11;21.50;97.20
921;DHT22;447;51.332;6.778;2023-05-07T14:44:38;21.50;97.20
921;DHT22;447;51.332;6.778;2023-05-07T14:47:07;21.50;97.30
921;DHT22;447;51.332;6.778;2023-05-07T14:49:36;21.50;97.30
921;DHT22;447;51.332;6.778;2023-05-07T14:52:03;21.50;97.40
921;DHT22;447;51.332;6.778;2023-05-07T14:54:33;21.50;97.50
921;DHT22;447;51.332;6.778;2023-05-07T14:57:04;21.50;97.60
921;DHT22;447;51.332;6.778;2023-05-07T14:59:30;21.50;97.70
921;DHT22;447;51.332;6.778;2023-05-07T15:01:57;21.50;97.70
921;DHT22;447;51.332;6.778;2023-05-07T15:04:24;21.50;97.70
921;DHT22;447;51.332;6.778;2023-05-07T15:06:54;21.50;97.70
921;DHT22;447;51.332;6.778;2023-05-07T15:09:21;21.50;97.80
921;DHT22;447;51.332;6.778;2023-05-07T15:11:47;21.50;98.00
921;DHT22;447;51.332;6.778;2023-05-07T15:14:16;21.50;97.70
921;DHT22;447;51.332;6.778;2023-05-07T15:16:44;21.50;97.70
921;DHT22;447;51.332;6.778;2023-05-07T15:19:13;21.50;97.80
921;DHT22;447;51.332;6.778;2023-05-07T15:21:42;21.50;97.80
921;DHT22;447;51.332;6.778;2023-05-07T15:24:08;21.50;97.80
921;DHT22;447;51.332;6.778;2023-05-07T15:26:39;21.50;97.80
921;DHT22;447;51.332;6.778;2023-05-07T15:29:05;21.50;97.80
921;DHT22;447;51.332;6.778;2023-05-07T15:31:35;21.50;97.70
921;DHT22;447;51.332;6.778;2023-05-07T15:34:03;21.50;97.80
921;DHT22;447;51.332;6.778;2023-05-07T15:36:31;21.50;97.80
921;DHT22;447;51.332;6.778;2023-05-07T15:38:58;21.50;97.80
921;DHT22;447;51.332;6.778;2023-05-07T15:41:30;21.50;97.90
921;DHT22;447;51.332;6.778;2023-05-07T15:43:58;21.50;97.90
921;DHT22;447;51.332;6.778;2023-05-07T15:46:25;21.50;98.00
921;DHT22;447;51.332;6.778;2023-05-07T15:48:54;21.50;98.00
921;DHT22;447;51.332;6.778;2023-05-07T15:51:22;21.50;98.00
921;DHT22;447;51.332;6.778;2023-05-07T15:53:54;21.50;98.20
921;DHT22;447;51.332;6.778;2023-05-07T15:56:20;21.50;98.10
921;DHT22;447;51.332;6.778;2023-05-07T15:58:46;21.50;98.10
921;DHT22;447;51.332;6.778;2023-05-07T16:01:14;21.50;98.10
921;DHT22;447;51.332;6.778;2023-05-07T16:03:43;21.50;98.30
921;DHT22;447;51.332;6.778;2023-05-07T16:06:12;21.50;98.30
921;DHT22;447;51.332;6.778;2023-05-07T16:08:41;21.50;98.30
921;DHT22;447;51.332;6.778;2023-05-07T16:11:13;21.50;98.30
921;DHT22;447;51.332;6.778;2023-05-07T16:13:39;21.50;98.30
921;DHT22;447;51.332;6.778;2023-05-07T16:16:07;21.40;98.30
921;DHT22;447;51.332;6.778;2023-05-07T16:18:35;21.50;98.40
921;DHT22;447;51.332;6.778;2023-05-07T16:21:02;21.40;98.30
921;DHT22;447;51.332;6.778;2023-05-07T16:23:31;21.40;98.70
921;DHT22;447;51.332;6.778;2023-05-07T16:25:57;21.50;98.40
921;DHT22;447;51.332;6.778;2023-05-07T16:28:23;21.40;98.40
921;DHT22;447;51.332;6.778;2023-05-07T16:30:49;21.40;98.60
921;DHT22;447;51.332;6.778;2023-05-07T16:33:15;21.40;98.70
921;DHT22;447;51.332;6.778;2023-05-07T16:35:43;21.40;98.70
921;DHT22;447;51.332;6.778;2023-05-07T16:38:14;21.40;98.70
921;DHT22;447;51.332;6.778;2023-05-07T16:40:43;21.40;98.90
921;DHT22;447;51.332;6.778;2023-05-07T16:43:09;21.40;99.00
921;DHT22;447;51.332;6.778;2023-05-07T16:45:36;21.40;99.10
921;DHT22;447;51.332;6.778;2023-05-07T16:48:04;21.50;99.30
921;DHT22;447;51.332;6.778;2023-05-07T16:50:35;21.40;99.30
921;DHT22;447;51.332;6.778;2023-05-07T16:53:06;21.40;99.40
921;DHT22;447;51.332;6.778;2023-05-07T16:55:36;21.40;99.50
921;DHT22;447;51.332;6.778;2023-05-07T16:58:07;21.40;99.50
921;DHT22;447;51.332;6.778;2023-05-07T17:00:34;21.40;99.40
921;DHT22;447;51.332;6.778;2023-05-07T17:03:03;21.40;99.50
921;DHT22;447;51.332;6.778;2023-05-07T17:05:31;21.40;99.60
921;DHT22;447;51.332;6.778;2023-05-07T17:07:57;21.40;99.50